Schedule Details


Flight Number: CTN422
Departure: Kastela (LDSP) at 07:45
Arrival: Duesseldorf (EDDL) at 09:45
Route: ZDA UL607 BUSET DCT GIMIX DCT BADIT T700 STAUB UL610 LOHRE Z850 ADEMI T854 DOMUX

Weather Information
LDSP 251830Z 01005KT CAVOK 28/15 Q1016 NOSIG
EDDL 251820Z 35006KT CAVOK 29/15 Q1018 NOSIG
Schedule Frequency

Route Map